Time;durP1;ratioP1;P1;durP2;ratioP2;P2;SDS_P1;SDS_P2;PMS_P1;PMS_P2;Temp;Humidity;BMP_temperature;BMP_pressure;BME280_temperature;BME280_humidity;BME280_pressure;Samples;Min_cycle;Max_cycle;Signal;HPM_P1;HPM_P2
2022/10/16 00:00:44;;;;;;;4.75;2.03;;;15.20;81.40;;;13.88;100.00;96025.47;4985741;28;20069;-70
2022/10/16 00:03:09;;;;;;;3.33;2.30;;;15.20;81.70;;;13.85;100.00;96033.00;4959064;28;20039;-70
2022/10/16 00:05:42;;;;;;;3.80;1.85;;;15.10;81.90;;;13.82;100.00;96028.97;4973509;28;20626;-70
2022/10/16 00:08:10;;;;;;;4.68;2.05;;;15.10;82.10;;;13.80;100.00;96036.28;4968388;28;20410;-71
2022/10/16 00:10:35;;;;;;;4.38;2.00;;;15.10;82.20;;;13.78;100.00;96031.19;4990051;28;20774;-70
2022/10/16 00:13:01;;;;;;;5.03;2.53;;;15.10;82.20;;;13.78;100.00;96025.91;5005874;28;20159;-70
2022/10/16 00:15:27;;;;;;;3.55;2.50;;;15.10;82.00;;;13.75;100.00;96028.16;4972272;28;20037;-70
2022/10/16 00:17:53;;;;;;;5.30;2.67;;;15.00;82.10;;;13.74;100.00;96029.19;4967072;28;20052;-70
2022/10/16 00:20:18;;;;;;;5.05;3.25;;;15.00;82.20;;;13.70;100.00;96018.22;4986994;28;20121;-71
2022/10/16 00:22:44;;;;;;;4.63;3.50;;;15.10;82.40;;;13.69;100.00;96032.47;4955427;28;20120;-70
2022/10/16 00:25:10;;;;;;;6.13;3.45;;;15.00;82.60;;;13.66;100.00;96022.31;4961598;28;20058;-71
2022/10/16 00:27:36;;;;;;;6.65;3.45;;;15.00;82.70;;;13.64;100.00;96023.56;4975594;28;20053;-70
2022/10/16 00:30:01;;;;;;;4.57;2.67;;;14.90;83.00;;;13.62;100.00;96020.31;5000816;28;20066;-70
2022/10/16 00:32:27;;;;;;;5.07;3.13;;;14.90;83.10;;;13.59;100.00;96020.72;4987245;28;20089;-70
2022/10/16 00:34:54;;;;;;;5.55;2.90;;;14.90;83.20;;;13.57;100.00;96012.16;4999756;28;20112;-70
2022/10/16 00:37:20;;;;;;;5.82;2.55;;;14.80;83.50;;;13.55;100.00;96016.84;4982076;28;20038;-70
2022/10/16 00:39:46;;;;;;;5.95;2.67;;;14.80;83.60;;;13.53;100.00;96018.91;4950553;28;20034;-71
2022/10/16 00:42:16;;;;;;;5.97;2.60;;;14.80;83.70;;;13.52;100.00;96025.22;4970486;28;20054;-71
2022/10/16 00:44:56;;;;;;;4.18;2.40;;;14.80;83.60;;;13.53;100.00;96034.75;4989392;28;20041;-70
2022/10/16 00:47:40;;;;;;;6.68;2.40;;;14.80;83.60;;;13.54;100.00;96036.38;4996226;28;20042;-70
2022/10/16 00:50:18;;;;;;;3.15;2.45;;;14.80;83.40;;;13.52;100.00;96051.63;4998213;28;20058;-70
2022/10/16 00:52:46;;;;;;;4.82;2.30;;;14.80;83.20;;;13.48;100.00;96053.88;4972860;28;20030;-70
2022/10/16 00:55:12;;;;;;;6.88;3.10;;;14.70;83.30;;;13.45;100.00;96049.03;4989476;28;20527;-69
2022/10/16 00:57:38;;;;;;;4.32;2.78;;;14.80;83.30;;;13.42;100.00;96052.88;4963831;28;20058;-70
2022/10/16 01:00:07;;;;;;;6.50;2.80;;;14.70;83.40;;;13.39;100.00;96053.31;4979449;28;20038;-70
2022/10/16 01:02:32;;;;;;;6.40;3.33;;;14.70;83.40;;;13.37;100.00;96052.72;4972541;28;20072;-70
2022/10/16 01:04:58;;;;;;;7.25;3.60;;;14.70;83.50;;;13.39;100.00;96052.50;4987461;28;20038;-70
2022/10/16 01:07:38;;;;;;;5.65;3.28;;;14.70;83.50;;;13.38;100.00;96051.69;4998430;28;20119;-70
2022/10/16 01:10:23;;;;;;;4.22;2.90;;;14.70;83.50;;;13.36;100.00;96053.72;5005920;28;20026;-70
2022/10/16 01:13:00;;;;;;;6.18;2.70;;;14.70;83.50;;;13.33;100.00;96051.47;5004423;28;20091;-70
2022/10/16 01:15:44;;;;;;;3.47;2.78;;;14.70;83.50;;;13.32;100.00;96052.50;4967333;28;20478;-70
2022/10/16 01:18:29;;;;;;;6.05;3.00;;;14.60;83.60;;;13.30;100.00;96054.53;4997818;28;20050;-69
2022/10/16 01:21:02;;;;;;;5.43;2.90;;;14.60;83.60;;;13.31;100.00;96055.34;4977925;28;20034;-70
2022/10/16 01:23:55;;;;;;;5.60;2.65;;;14.60;83.60;;;13.30;100.00;96064.28;4954081;28;20034;-69
2022/10/16 01:27:04;;;;;;;3.85;2.83;;;14.60;83.70;;;13.28;100.00;96053.94;4999396;28;20107;-70
2022/10/16 01:29:42;;;;;;;4.47;2.17;;;14.60;83.70;;;13.25;100.00;96054.34;5004117;28;20062;-69
2022/10/16 01:32:33;;;;;;;4.03;2.20;;;14.60;83.80;;;13.26;100.00;96057.81;4953476;28;20084;-70
2022/10/16 01:35:18;;;;;;;4.75;1.90;;;14.60;83.90;;;13.23;100.00;96051.09;4998564;28;20045;-69
2022/10/16 01:37:50;;;;;;;4.57;2.00;;;14.60;84.20;;;13.22;100.00;96048.66;4981477;28;20074;-70
2022/10/16 01:40:16;;;;;;;2.08;1.50;;;14.60;84.30;;;13.20;100.00;96040.97;4986113;28;20141;-69
2022/10/16 01:42:46;;;;;;;2.83;1.90;;;14.60;84.50;;;13.21;100.00;96045.22;4972229;28;20449;-69
2022/10/16 01:45:13;;;;;;;3.20;1.80;;;14.50;84.50;;;13.21;100.00;96041.78;4982273;28;20046;-70
2022/10/16 01:47:39;;;;;;;3.70;1.58;;;14.50;84.60;;;13.20;100.00;96056.00;4941747;28;20030;-70
2022/10/16 01:50:05;;;;;;;3.00;1.88;;;14.50;84.60;;;13.18;100.00;96056.19;4968170;28;20033;-70
2022/10/16 01:52:32;;;;;;;2.35;1.65;;;14.40;84.90;;;13.16;100.00;96059.03;4987990;28;20048;-70
2022/10/16 01:54:58;;;;;;;3.28;1.60;;;14.40;85.10;;;13.15;100.00;96061.88;4962849;28;20602;-70
2022/10/16 01:57:24;;;;;;;4.47;1.60;;;14.40;85.30;;;13.15;100.00;96052.13;4986446;28;20066;-69
2022/10/16 01:59:53;;;;;;;3.42;1.60;;;14.50;85.20;;;13.14;100.00;96055.78;4962152;28;20046;-69
2022/10/16 02:02:19;;;;;;;2.38;1.35;;;14.40;85.50;;;13.16;100.00;96032.59;4973940;28;20083;-70
2022/10/16 02:04:53;;;;;;;3.55;1.50;;;14.50;85.30;;;13.20;100.00;96033.03;4987099;28;20038;-70
2022/10/16 02:07:19;;;;;;;3.83;1.50;;;14.60;85.20;;;13.21;100.00;96034.66;4981686;28;20512;-70
2022/10/16 02:09:44;;;;;;;2.95;1.40;;;14.60;85.00;;;13.23;100.00;96037.91;4982533;28;20129;-70
2022/10/16 02:12:32;;;;;;;4.68;1.38;;;14.60;84.90;;;13.24;100.00;96034.25;4988595;28;20066;-70
2022/10/16 02:14:58;;;;;;;3.38;1.40;;;14.60;84.70;;;13.25;100.00;96046.44;4971799;28;20037;-69
2022/10/16 02:17:24;;;;;;;3.13;1.52;;;14.60;84.50;;;13.26;100.00;96055.16;4992679;28;20034;-70
2022/10/16 02:19:50;;;;;;;1.77;1.42;;;14.60;84.50;;;13.25;100.00;96051.72;4987994;28;20046;-69
2022/10/16 02:22:34;;;;;;;2.22;1.23;;;14.60;84.40;;;13.24;100.00;96050.09;4977416;28;20072;-69
2022/10/16 02:25:35;;;;;;;3.65;1.30;;;14.60;84.40;;;13.23;100.00;96043.19;4974389;28;20034;-70
2022/10/16 02:28:07;;;;;;;;;;;14.60;84.20;;;13.16;100.00;96045.81;4946699;28;20037;-69
2022/10/16 02:30:51;;;;;;;2.90;1.25;;;14.60;84.40;;;13.16;100.00;96060.84;4982259;28;19917;-69
2022/10/16 02:33:17;;;;;;;1.98;1.23;;;14.50;84.40;;;13.13;100.00;96055.97;4989131;28;20505;-70
2022/10/16 02:35:44;;;;;;;3.40;1.45;;;14.50;84.20;;;13.13;100.00;96063.91;4962161;28;20084;-69
2022/10/16 02:38:10;;;;;;;3.20;1.70;;;14.50;84.20;;;13.08;100.00;96053.94;4976750;28;20112;-69
2022/10/16 02:40:36;;;;;;;3.78;1.52;;;14.40;84.10;;;13.04;100.00;96065.13;4992624;28;20116;-69
2022/10/16 02:43:03;;;;;;;5.80;1.70;;;14.40;84.20;;;13.02;100.00;96072.44;4990859;28;20521;-70
2022/10/16 02:45:29;;;;;;;1.58;1.20;;;14.40;84.10;;;13.02;100.00;96067.16;4992422;28;20028;-70
2022/10/16 02:47:54;;;;;;;1.92;1.30;;;14.40;84.20;;;12.99;100.00;96059.66;5007328;28;20565;-70
2022/10/16 02:50:20;;;;;;;4.18;1.40;;;14.30;84.20;;;12.98;100.00;96060.66;4969395;28;20037;-70
2022/10/16 02:52:46;;;;;;;5.00;1.50;;;14.30;84.40;;;12.97;100.00;96053.75;4987722;28;20448;-69
2022/10/16 02:55:12;;;;;;;4.82;1.45;;;14.30;84.50;;;12.95;100.00;96043.41;5009657;28;20129;-69
2022/10/16 02:57:40;;;;;;;2.42;1.75;;;14.30;84.60;;;12.96;100.00;96044.22;4988467;28;20129;-70
2022/10/16 03:00:10;;;;;;;4.90;1.77;;;14.30;84.70;;;12.97;100.00;96059.03;4958252;28;20049;-70
2022/10/16 03:02:35;;;;;;;3.03;1.80;;;14.30;84.70;;;12.95;100.00;96061.06;4993695;28;20042;-70
2022/10/16 03:05:01;;;;;;;4.35;1.98;;;14.20;84.50;;;12.93;100.00;96068.38;4985957;28;20073;-70
2022/10/16 03:07:27;;;;;;;3.75;2.03;;;14.30;84.50;;;12.91;100.00;96059.88;4985377;28;20057;-70
2022/10/16 03:09:53;;;;;;;4.72;2.20;;;14.20;84.30;;;12.86;100.00;96066.53;4991147;28;20117;-70
2022/10/16 03:12:18;;;;;;;3.85;2.70;;;14.20;84.30;;;12.81;100.00;96063.72;4991948;28;20164;-69
2022/10/16 03:14:44;;;;;;;4.47;2.22;;;14.10;84.50;;;12.77;100.00;96065.13;4993210;28;20084;-70
2022/10/16 03:17:10;;;;;;;4.13;2.80;;;14.10;84.80;;;12.72;100.00;96067.56;4991820;28;20065;-69
2022/10/16 03:19:35;;;;;;;7.43;2.53;;;14.10;84.90;;;12.70;100.00;96072.25;5008797;28;20069;-70
2022/10/16 03:22:01;;;;;;;3.67;2.20;;;14.00;85.00;;;12.69;100.00;96075.91;4976163;28;20414;-69
2022/10/16 03:24:27;;;;;;;4.93;2.33;;;14.00;85.10;;;12.67;100.00;96077.91;4983659;28;20510;-69
2022/10/16 03:26:53;;;;;;;3.25;1.80;;;14.00;85.10;;;12.68;100.00;96082.19;4979559;28;20117;-70
2022/10/16 03:29:19;;;;;;;3.65;2.20;;;14.00;85.10;;;12.67;100.00;96075.25;4986311;28;20066;-70
2022/10/16 03:31:44;;;;;;;4.30;2.13;;;14.00;85.10;;;12.67;100.00;96080.53;4972805;28;20532;-70
2022/10/16 03:34:10;;;;;;;24.50;18.33;;;14.00;85.10;;;12.66;100.00;96068.38;4977661;28;20120;-69
2022/10/16 03:36:36;;;;;;;31.98;25.20;;;14.00;85.30;;;12.65;100.00;96064.09;4943994;28;20582;-69
2022/10/16 03:39:02;;;;;;;11.52;9.48;;;14.00;85.30;;;12.63;100.00;96060.03;4988337;28;20498;-69
2022/10/16 03:41:27;;;;;;;3.63;2.78;;;14.00;85.00;;;12.62;100.00;96061.06;4991909;28;20465;-69
2022/10/16 03:43:53;;;;;;;4.80;2.42;;;14.00;84.70;;;12.63;100.00;96067.97;4972869;28;20454;-70
2022/10/16 03:46:19;;;;;;;3.70;1.95;;;14.00;84.80;;;12.64;100.00;96080.94;4975963;28;20533;-70
2022/10/16 03:48:45;;;;;;;2.50;1.85;;;14.10;84.90;;;12.66;100.00;96084.19;4973144;28;20660;-70
2022/10/16 03:51:10;;;;;;;3.10;1.92;;;14.10;84.90;;;12.67;100.00;96090.28;4993150;28;20045;-70
2022/10/16 03:53:36;;;;;;;2.67;1.75;;;14.00;84.80;;;12.67;100.00;96085.81;4975557;28;22186;-69
2022/10/16 03:56:02;;;;;;;5.57;2.20;;;14.10;84.70;;;12.68;100.00;96087.47;4992577;28;20069;-69
2022/10/16 03:58:28;;;;;;;5.43;2.00;;;14.10;84.60;;;12.69;100.00;96093.56;4983407;28;20054;-69
2022/10/16 04:00:53;;;;;;;3.25;1.95;;;14.10;84.70;;;12.68;100.00;96087.47;5008917;28;20068;-70
2022/10/16 04:03:19;;;;;;;3.60;1.92;;;14.10;84.80;;;12.68;100.00;96090.13;4995968;28;20112;-70
2022/10/16 04:05:45;;;;;;;3.45;1.80;;;14.10;84.90;;;12.68;100.00;96090.13;4992013;28;20056;-70
2022/10/16 04:08:11;;;;;;;7.35;1.60;;;14.10;85.00;;;12.69;100.00;96077.72;5001040;28;20061;-70
2022/10/16 04:10:36;;;;;;;5.63;1.88;;;14.10;85.00;;;12.68;100.00;96079.56;4991077;28;20068;-70
2022/10/16 04:13:02;;;;;;;4.70;1.70;;;14.10;85.20;;;12.69;100.00;96083.00;5004410;28;20066;-70
2022/10/16 04:15:28;;;;;;;6.82;1.75;;;14.10;85.20;;;12.69;100.00;96086.47;4988364;28;20050;-70
2022/10/16 04:17:54;;;;;;;5.25;1.70;;;14.10;85.20;;;12.71;100.00;96089.72;4969254;28;20065;-70
2022/10/16 04:20:20;;;;;;;5.10;1.65;;;14.20;85.00;;;12.73;100.00;96082.41;4976238;28;20035;-70
2022/10/16 04:22:45;;;;;;;3.45;1.83;;;14.10;84.90;;;12.73;100.00;96085.03;4948538;28;20038;-69
2022/10/16 04:25:11;;;;;;;3.97;1.58;;;14.10;84.90;;;12.74;100.00;96078.75;4985011;28;20034;-70
2022/10/16 04:27:38;;;;;;;4.32;1.75;;;14.10;84.90;;;12.73;100.00;96079.75;5001646;28;20054;-71
2022/10/16 04:30:04;;;;;;;2.22;1.60;;;14.10;84.80;;;12.73;100.00;96085.03;4984977;28;20030;-69
2022/10/16 04:32:30;;;;;;;3.33;1.73;;;14.10;84.90;;;12.71;100.00;96076.50;4982667;28;20034;-70
2022/10/16 04:34:55;;;;;;;2.53;1.40;;;14.10;84.80;;;12.72;100.00;96070.22;5007346;28;20053;-69
2022/10/16 04:37:27;;;;;;;2.70;1.55;;;14.10;84.70;;;12.74;100.00;96076.09;4990446;28;20053;-70
2022/10/16 04:39:53;;;;;;;3.92;1.48;;;14.20;84.70;;;12.75;100.00;96083.00;4991500;28;20029;-69
2022/10/16 04:42:20;;;;;;;1.77;1.30;;;14.20;84.50;;;12.77;100.00;96083.63;4979050;28;20505;-70
2022/10/16 04:44:46;;;;;;;2.60;1.40;;;14.20;84.70;;;12.77;100.00;96080.97;4983268;28;20034;-70
2022/10/16 04:47:11;;;;;;;4.82;1.50;;;14.10;84.70;;;12.75;100.00;96083.00;4988766;28;20073;-68
2022/10/16 04:49:37;;;;;;;5.18;1.40;;;14.10;84.70;;;12.77;100.00;96096.00;5001254;28;20053;-70
2022/10/16 04:52:03;;;;;;;2.13;1.40;;;14.20;84.60;;;12.75;100.00;96098.84;4991987;28;20068;-70
2022/10/16 04:54:29;;;;;;;8.30;1.70;;;14.20;84.40;;;12.77;100.00;96096.00;4983017;28;20121;-70
2022/10/16 04:56:54;;;;;;;3.10;1.83;;;14.20;84.40;;;12.77;100.00;96096.00;4990774;28;20121;-70
2022/10/16 04:59:20;;;;;;;4.97;1.60;;;14.20;84.40;;;12.76;100.00;96094.38;4986090;28;20038;-70
2022/10/16 05:01:46;;;;;;;2.58;1.40;;;14.10;84.40;;;12.75;100.00;96092.75;4991928;28;20521;-70
2022/10/16 05:04:12;;;;;;;5.68;1.98;;;14.10;84.50;;;12.76;100.00;96086.47;4974500;28;20065;-69
2022/10/16 05:06:40;;;;;;;3.63;1.52;;;14.20;84.60;;;12.74;100.00;96084.03;5000898;28;20445;-70
2022/10/16 05:09:06;;;;;;;4.05;1.67;;;14.20;84.50;;;12.74;100.00;96086.66;4991832;28;20048;-70
2022/10/16 05:11:32;;;;;;;3.90;1.67;;;14.10;84.60;;;12.76;100.00;96086.47;4988541;28;20411;-70
2022/10/16 05:13:58;;;;;;;2.05;1.50;;;14.20;84.50;;;12.75;100.00;96083.00;4955893;28;20108;-70
2022/10/16 05:16:24;;;;;;;2.95;1.98;;;14.10;84.30;;;12.73;100.00;96079.75;4989543;28;20125;-71
2022/10/16 05:18:51;;;;;;;4.13;1.92;;;14.10;84.10;;;12.73;100.00;96086.88;4991012;28;20076;-70
2022/10/16 05:21:17;;;;;;;8.48;2.05;;;14.10;84.10;;;12.73;100.00;96090.31;4991028;28;20037;-70
2022/10/16 05:23:42;;;;;;;2.30;1.77;;;14.10;84.00;;;12.71;100.00;96079.16;4987972;28;20064;-70
2022/10/16 05:26:08;;;;;;;3.55;2.05;;;14.10;84.10;;;12.71;100.00;96083.63;5003493;28;20066;-70
2022/10/16 05:28:34;;;;;;;4.38;1.70;;;14.10;84.00;;;12.69;100.00;96094.38;4988640;28;20126;-70
2022/10/16 05:31:04;;;;;;;2.30;1.58;;;14.10;83.90;;;12.70;100.00;96098.66;4967058;28;20058;-70
2022/10/16 05:33:30;;;;;;;3.50;1.92;;;14.10;84.00;;;12.68;100.00;96100.66;4986117;28;20045;-70
2022/10/16 05:35:55;;;;;;;2.75;1.58;;;14.10;83.90;;;12.67;100.00;96109.56;4991113;28;20034;-70
2022/10/16 05:38:21;;;;;;;2.03;1.25;;;14.10;83.80;;;12.66;100.00;96110.59;4982302;28;20038;-70
2022/10/16 05:40:51;;;;;;;6.55;1.58;;;14.10;83.80;;;12.64;100.00;96106.53;5001426;28;20058;-70
2022/10/16 05:43:17;;;;;;;5.68;1.90;;;14.10;83.90;;;12.60;100.00;96116.69;4985790;28;20030;-70
2022/10/16 05:45:43;;;;;;;6.25;2.45;;;14.00;83.90;;;12.59;100.00;96112.41;4969818;28;20104;-70
2022/10/16 05:48:08;;;;;;;2.80;1.45;;;14.00;84.10;;;12.60;100.00;96115.88;4974579;28;20030;-70
2022/10/16 05:50:34;;;;;;;3.63;1.50;;;14.10;84.00;;;12.61;100.00;96112.22;5002980;28;20553;-70
2022/10/16 05:53:00;;;;;;;3.95;2.15;;;14.00;83.90;;;12.58;100.00;96113.44;4972638;28;20042;-70
2022/10/16 05:55:26;;;;;;;2.78;1.77;;;14.10;83.90;;;12.57;100.00;96111.81;5008787;28;20100;-70
2022/10/16 05:57:54;;;;;;;3.00;1.52;;;14.00;84.00;;;12.57;100.00;96111.81;4957952;28;20122;-70
2022/10/16 06:00:20;;;;;;;12.95;9.35;;;14.00;84.10;;;12.56;100.00;96115.47;4990992;28;20038;-70
2022/10/16 06:02:46;;;;;;;28.65;24.05;;;14.00;84.00;;;12.57;100.00;96122.34;4988247;28;20068;-71
2022/10/16 06:05:11;;;;;;;11.30;9.48;;;14.00;84.00;;;12.55;100.00;96109.38;4985576;28;20061;-70
2022/10/16 06:07:37;;;;;;;13.55;9.45;;;14.00;84.00;;;12.53;100.00;96110.59;4955695;28;20116;-71
2022/10/16 06:10:04;;;;;;;37.45;31.35;;;14.00;84.00;;;12.54;100.00;96122.78;4958891;28;20031;-71
2022/10/16 06:12:30;;;;;;;14.15;10.32;;;14.00;84.00;;;12.54;100.00;96128.03;4984876;28;20068;-73
2022/10/16 06:14:55;;;;;;;3.75;2.50;;;14.00;83.90;;;12.50;100.00;96129.47;4969989;28;20112;-69
2022/10/16 06:17:21;;;;;;;2.25;1.90;;;13.90;83.80;;;12.50;100.00;96145.28;4989779;28;20061;-74
2022/10/16 06:19:47;;;;;;;5.80;1.95;;;14.00;83.90;;;12.48;100.00;96144.69;4970711;28;20081;-69
2022/10/16 06:22:13;;;;;;;2.90;1.83;;;13.90;83.90;;;12.45;100.00;96142.44;4975633;28;20117;-71
2022/10/16 06:24:38;;;;;;;4.80;1.90;;;13.90;83.90;;;12.44;100.00;96149.50;5005851;28;20062;-71
2022/10/16 06:27:04;;;;;;;2.85;1.80;;;13.90;84.00;;;12.44;100.00;96151.34;4996254;28;20494;-71
2022/10/16 06:29:30;;;;;;;2.38;1.73;;;13.90;83.90;;;12.43;100.00;96147.06;4975825;28;20462;-71
2022/10/16 06:31:56;;;;;;;8.15;2.33;;;13.90;83.90;;;12.46;100.00;96157.25;4992454;28;20128;-71
2022/10/16 06:34:22;;;;;;;7.80;4.65;;;14.00;83.90;;;12.48;100.00;96165.78;4992587;28;20062;-72
2022/10/16 06:36:47;;;;;;;11.77;9.15;;;14.00;83.80;;;12.51;100.00;96162.75;4969714;28;20034;-71
2022/10/16 06:39:13;;;;;;;50.35;42.97;;;14.00;84.20;;;12.55;100.00;96161.31;5008886;28;20500;-72
2022/10/16 06:41:39;;;;;;;44.55;39.80;;;14.10;84.50;;;12.57;100.00;96159.31;5009416;28;20042;-72
2022/10/16 06:44:08;;;;;;;16.15;14.13;;;14.10;84.20;;;12.61;100.00;96168.44;4976643;28;20121;-71
2022/10/16 06:46:34;;;;;;;7.38;4.50;;;14.20;84.10;;;12.64;100.00;96172.50;4992934;28;20038;-72
2022/10/16 06:48:59;;;;;;;17.48;9.48;;;14.20;83.90;;;12.67;100.00;96170.28;4973030;28;20419;-71
2022/10/16 06:51:25;;;;;;;12.93;7.80;;;14.30;83.60;;;12.70;100.00;96177.81;4983501;28;20526;-72
2022/10/16 06:53:53;;;;;;;23.13;18.20;;;14.40;83.40;;;12.73;100.00;96173.97;4975465;28;20430;-72
2022/10/16 06:56:21;;;;;;;6.15;4.80;;;14.40;83.40;;;12.76;100.00;96178.84;4988949;28;20034;-71
2022/10/16 06:58:47;;;;;;;3.40;2.00;;;14.40;83.30;;;12.78;100.00;96182.91;4971499;28;20030;-70
2022/10/16 07:01:13;;;;;;;5.00;1.90;;;14.40;82.90;;;12.81;100.00;96186.97;5003090;28;20061;-71
2022/10/16 07:03:40;;;;;;;15.73;5.57;;;14.40;82.70;;;12.84;100.00;96192.66;4974178;28;20038;-71
2022/10/16 07:06:07;;;;;;;15.10;9.27;;;14.60;82.50;;;12.93;100.00;96193.28;4989513;28;20759;-73
2022/10/16 07:08:34;;;;;;;19.42;16.20;;;14.70;82.10;;;13.04;100.00;96192.69;4985144;28;20076;-73
2022/10/16 07:11:01;;;;;;;8.70;7.20;;;15.00;81.80;;;13.15;100.00;96191.28;4987148;28;20033;-72
2022/10/16 07:13:27;;;;;;;2.65;1.92;;;15.10;81.20;;;13.27;100.00;96192.31;4958399;28;20030;-73
2022/10/16 07:15:52;;;;;;;2.42;1.40;;;15.40;80.40;;;13.41;100.00;96198.41;4984970;28;20049;-71
2022/10/16 07:18:18;;;;;;;2.55;1.40;;;15.50;80.30;;;13.58;100.00;96194.34;5003556;28;20103;-72
2022/10/16 07:20:44;;;;;;;2.40;1.30;;;15.70;79.50;;;13.77;100.00;96204.06;4976159;28;20123;-76
2022/10/16 07:23:10;;;;;;;5.82;1.35;;;16.10;78.70;;;14.00;100.00;96198.31;4957457;28;20125;-73
2022/10/16 07:25:35;;;;;;;2.75;1.40;;;16.60;77.30;;;14.23;100.00;96207.59;4959899;28;20125;-72
2022/10/16 07:28:01;;;;;;;8.80;1.17;;;17.00;76.30;;;14.44;100.00;96201.25;4957819;28;20081;-74
2022/10/16 07:30:27;;;;;;;4.30;1.13;;;16.90;76.30;;;14.58;100.00;96211.56;4990737;28;20121;-72
2022/10/16 07:32:52;;;;;;;1.95;1.33;;;17.20;76.00;;;14.71;100.00;96205.41;4994110;28;20057;-70
2022/10/16 07:35:18;;;;;;;5.57;1.10;;;17.30;75.30;;;14.85;100.00;96214.88;5007770;28;20065;-74
2022/10/16 07:37:48;;;;;;;6.20;4.50;;;17.60;74.30;;;14.99;100.00;96219.09;4966241;28;20066;-76
2022/10/16 07:40:14;;;;;;;17.45;10.30;;;17.70;73.50;;;15.09;100.00;96213.31;4992588;28;20041;-72
2022/10/16 07:42:40;;;;;;;5.50;2.95;;;17.60;74.00;;;15.19;100.00;96213.66;4999133;28;20124;-77
2022/10/16 07:45:06;;;;;;;2.65;1.48;;;18.10;72.70;;;15.36;100.00;96229.03;4983505;28;20129;-73
2022/10/16 07:47:32;;;;;;;2.38;1.20;;;18.70;69.70;;;15.52;100.00;96233.78;5000139;28;20042;-77
2022/10/16 07:49:58;;;;;;;5.00;1.65;;;19.10;67.90;;;15.75;100.00;96227.91;4966299;28;20033;-74
2022/10/16 07:52:24;;;;;;;1.88;1.27;;;19.70;66.60;;;15.98;100.00;96225.44;4959699;28;20022;-66
2022/10/16 07:54:49;;;;;;;3.38;1.30;;;20.20;65.70;;;16.24;100.00;96229.66;4995771;28;20058;-70
2022/10/16 07:57:19;;;;;;;2.65;1.30;;;20.60;64.00;;;16.52;100.00;96229.97;4993839;28;20141;-71
2022/10/16 07:59:45;;;;;;;2.95;1.10;;;21.10;63.20;;;16.82;100.00;96237.19;4977636;28;20401;-66
2022/10/16 08:02:12;;;;;;;3.22;1.40;;;21.50;60.30;;;17.09;100.00;96235.78;4971444;28;20096;-71
2022/10/16 08:04:37;;;;;;;3.45;1.50;;;21.90;59.50;;;17.42;100.00;96234.47;4966614;28;20041;-72
2022/10/16 08:07:03;;;;;;;2.28;1.58;;;22.40;57.60;;;17.73;100.00;96231.56;4984902;28;20042;-70
2022/10/16 08:09:29;;;;;;;5.72;1.50;;;23.00;56.00;;;18.03;100.00;96238.59;4980098;28;20041;-72
2022/10/16 08:11:55;;;;;;;21.00;16.52;;;23.20;54.70;;;18.34;100.00;96240.91;4967972;28;20557;-73
2022/10/16 08:14:20;;;;;;;3.20;1.98;;;23.60;54.50;;;18.63;100.00;96235.66;5001293;28;20061;-73
2022/10/16 08:16:46;;;;;;;4.47;1.25;;;23.90;52.40;;;18.89;100.00;96243.09;4976998;28;20073;-74
2022/10/16 08:19:12;;;;;;;1.77;1.35;;;24.30;51.10;;;19.17;100.00;96244.94;5002711;28;20073;-72
2022/10/16 08:21:38;;;;;;;2.13;1.10;;;24.50;51.00;;;19.44;100.00;96247.00;4965208;28;20119;-73
2022/10/16 08:24:03;;;;;;;7.05;1.10;;;24.80;49.80;;;19.71;98.84;96247.25;4984938;28;20478;-72
2022/10/16 08:26:29;;;;;;;2.95;1.38;;;24.80;49.60;;;19.98;96.85;96245.53;4981823;28;20501;-71
2022/10/16 08:28:55;;;;;;;19.42;16.75;;;24.90;49.30;;;20.25;96.50;96252.84;4983822;28;20061;-72
2022/10/16 08:31:21;;;;;;;3.80;3.00;;;25.10;49.80;;;20.49;94.82;96255.06;4998169;28;20057;-73
2022/10/16 08:33:47;;;;;;;4.63;2.20;;;25.40;49.00;;;20.76;92.89;96255.13;4966226;28;20037;-72
2022/10/16 08:36:13;;;;;;;5.80;2.20;;;25.60;47.60;;;21.03;91.25;96255.16;4969169;28;20506;-72
2022/10/16 08:38:39;;;;;;;3.10;2.17;;;26.00;47.50;;;21.31;90.17;96259.53;4954718;28;20246;-67
2022/10/16 08:41:27;;;;;;;3.53;1.10;;;26.50;46.40;;;21.60;81.23;96257.38;4986024;28;20038;-71
2022/10/16 08:44:20;;;;;;;3.28;1.35;;;26.60;45.70;;;21.89;79.91;96263.22;5006668;28;20033;-71
2022/10/16 08:47:04;;;;;;;2.22;1.08;;;27.00;45.60;;;22.15;79.23;96260.75;5004185;28;20041;-71
2022/10/16 08:49:30;;;;;;;3.83;1.45;;;27.30;44.00;;;22.38;83.83;96260.38;4991751;28;20077;-71
2022/10/16 08:51:57;;;;;;;2.10;1.25;;;27.50;43.20;;;22.65;82.03;96254.91;4982253;28;20043;-71
2022/10/16 08:54:40;;;;;;;2.45;1.10;;;27.80;43.20;;;22.95;75.90;96261.47;4974138;28;20117;-72
2022/10/16 08:57:26;;;;;;;1.50;1.17;;;28.10;43.50;;;23.29;74.74;96264.50;4975016;28;20056;-71
2022/10/16 08:59:54;;;;;;;3.08;1.30;;;28.40;43.40;;;23.57;79.72;96258.72;4980178;28;20054;-71
2022/10/16 09:02:31;;;;;;;1.73;1.13;;;28.80;42.10;;;23.88;70.61;96264.06;4999269;28;20557;-72
2022/10/16 09:05:23;;;;;;;3.45;1.38;;;28.80;40.60;;;24.23;69.17;96264.06;4975229;28;20073;-73
2022/10/16 09:08:15;;;;;;;2.22;1.30;;;29.50;40.50;;;24.54;66.51;96253.25;5004617;28;20037;-72
2022/10/16 09:11:00;;;;;;;2.28;1.33;;;29.70;39.50;;;24.86;66.07;96259.03;5006479;28;20107;-72
2022/10/16 09:13:43;;;;;;;2.70;1.30;;;30.00;38.50;;;25.10;68.84;96261.13;4976756;28;20434;-73
2022/10/16 09:16:30;;;;;;;2.22;1.05;;;30.40;38.60;;;25.39;65.75;96259.38;5005237;28;20554;-74
2022/10/16 09:19:27;;;;;;;4.03;1.23;;;31.40;37.60;;;25.73;63.44;96259.41;4989619;28;20113;-77
2022/10/16 09:21:53;;;;;;;3.17;1.20;;;32.00;36.10;;;26.05;68.52;96266.19;4985449;28;20452;-75
2022/10/16 09:24:21;;;;;;;4.72;2.05;;;32.60;34.60;;;26.34;65.74;96264.31;4978261;28;20065;-78
2022/10/16 09:26:47;;;;;;;3.15;1.38;;;33.20;33.80;;;26.61;66.62;96257.53;4998688;28;20057;-79
2022/10/16 09:29:19;;;;;;;2.22;1.23;;;34.00;33.30;;;26.96;61.47;96254.44;4991545;28;20030;-78
2022/10/16 09:31:45;;;;;;;2.63;1.20;;;35.00;31.70;;;27.35;65.32;96261.50;4991850;28;20049;-77
2022/10/16 09:34:32;;;;;;;2.65;1.20;;;35.80;30.20;;;27.78;56.76;96259.53;5003038;28;20042;-79
2022/10/16 09:36:58;;;;;;;7.28;5.97;;;36.70;29.40;;;28.14;64.59;96265.16;4984908;28;20034;-70
2022/10/16 09:39:24;;;;;;;5.80;2.67;;;37.30;28.70;;;28.55;64.36;96280.72;4974718;28;20039;-70
2022/10/16 09:41:50;;;;;;;1.58;1.40;;;38.10;27.50;;;28.96;62.70;96278.81;4964124;28;20034;-70
2022/10/16 09:44:25;;;;;;;2.60;1.25;;;39.20;26.10;;;29.36;55.10;96268.25;4984084;28;20035;-68
2022/10/16 09:47:04;;;;;;;2.40;1.23;;;40.30;25.40;;;29.85;52.14;96277.44;4986141;28;20026;-70
2022/10/16 09:49:30;;;;;;;1.88;1.30;;;41.00;23.80;;;30.27;60.51;96278.06;4972666;28;20042;-69
2022/10/16 09:52:10;;;;;;;2.83;1.40;;;41.80;23.40;;;30.81;50.44;96268.00;4985780;28;20096;-70
2022/10/16 09:54:35;;;;;;;1.58;1.00;;;42.30;22.40;;;31.34;56.65;96276.00;4981576;28;20567;-69
2022/10/16 09:57:11;;;;;;;4.00;1.20;;;43.00;22.10;;;31.86;46.96;96262.44;4983400;28;20042;-70
2022/10/16 09:59:46;;;;;;;3.05;1.23;;;43.20;21.50;;;32.42;45.74;96274.22;4988346;28;20030;-69
2022/10/16 10:02:12;;;;;;;1.15;1.00;;;43.50;21.50;;;32.85;51.37;96255.81;4994678;28;20088;-68
2022/10/16 10:04:56;;;;;;;3.20;1.52;;;44.50;20.70;;;33.30;44.49;96260.69;4970841;28;20792;-69
2022/10/16 10:07:35;;;;;;;5.22;1.50;;;45.10;20.70;;;33.89;42.76;96266.06;4986919;28;20048;-69
2022/10/16 10:10:03;;;;;;;5.63;2.33;;;45.90;20.20;;;34.45;45.23;96260.25;4985498;28;20088;-69
2022/10/16 10:12:32;;;;;;;5.35;3.85;;;46.50;19.80;;;34.85;47.52;96274.09;4999128;28;20154;-69
2022/10/16 10:15:12;;;;;;;3.28;1.60;;;47.00;19.10;;;35.24;39.41;96272.59;4990683;28;20387;-74
2022/10/16 10:17:50;;;;;;;2.25;1.20;;;46.50;19.50;;;35.51;38.86;96262.88;4972558;28;20413;-72
2022/10/16 10:20:26;;;;;;;1.30;1.10;;;46.70;19.30;;;35.78;42.60;96262.16;4981265;28;20529;-70